createdAt,value
2022-11-23T00:05:53.222Z,52.67
2022-11-23T00:12:07.355Z,36.83
2022-11-23T00:18:22.498Z,35.10
2022-11-23T00:24:36.781Z,31.48
2022-11-23T00:30:57.419Z,28.00
2022-11-23T00:37:09.998Z,31.45
2022-11-23T00:43:24.555Z,21.77
2022-11-23T00:49:38.654Z,21.65
2022-11-23T00:55:58.794Z,14.00
2022-11-23T01:02:20.790Z,22.40
2022-11-23T01:08:31.079Z,18.35
2022-11-23T01:14:50.206Z,16.35
2022-11-23T01:21:12.523Z,15.50
2022-11-23T01:27:29.750Z,12.90
2022-11-23T01:33:48.321Z,12.40
2022-11-23T01:40:00.935Z,15.50
2022-11-23T01:46:15.633Z,8.70
2022-11-23T01:52:33.285Z,14.25
2022-11-23T01:58:49.167Z,18.00
2022-11-23T02:05:01.770Z,14.43
2022-11-23T02:11:22.513Z,11.70
2022-11-23T02:17:50.858Z,10.00
2022-11-23T02:24:04.894Z,12.58
2022-11-23T02:30:24.839Z,6.97
2022-11-23T02:36:46.402Z,11.38
2022-11-23T02:43:03.041Z,10.90
2022-11-23T02:49:15.235Z,7.85
2022-11-23T02:55:36.566Z,9.70
2022-11-23T03:01:52.072Z,10.20
2022-11-23T03:08:11.476Z,10.08
2022-11-23T03:14:29.318Z,9.65
2022-11-23T03:20:42.357Z,10.80
2022-11-23T03:26:57.710Z,6.17
2022-11-23T03:33:13.563Z,8.05
2022-11-23T03:39:27.260Z,11.20
2022-11-23T03:45:41.000Z,6.78
2022-11-23T03:51:57.940Z,7.47
2022-11-23T03:58:18.822Z,6.42
2022-11-23T04:04:34.895Z,4.22
2022-11-23T04:10:45.236Z,7.53
2022-11-23T04:16:58.662Z,7.47
2022-11-23T04:23:14.615Z,7.30
2022-11-23T04:29:26.976Z,6.50
2022-11-23T04:35:44.265Z,6.87
2022-11-23T04:42:00.337Z,4.12
2022-11-23T04:48:21.986Z,5.53
2022-11-23T04:54:37.743Z,5.00
2022-11-23T05:00:51.065Z,2.87
2022-11-23T05:07:05.526Z,3.75
2022-11-23T05:13:22.091Z,4.25
2022-11-23T05:19:37.952Z,6.58
2022-11-23T05:25:51.319Z,5.60
2022-11-23T05:32:05.006Z,4.10
2022-11-23T05:38:20.901Z,6.65
2022-11-23T05:44:36.489Z,5.57
2022-11-23T05:50:50.012Z,11.95
2022-11-23T05:57:07.153Z,10.60
2022-11-23T06:03:22.738Z,5.33
2022-11-23T06:09:35.148Z,7.05
2022-11-23T06:15:51.513Z,9.15
2022-11-23T06:22:08.239Z,5.90
2022-11-23T06:28:23.129Z,9.03
2022-11-23T06:34:34.181Z,5.97
2022-11-23T06:40:46.750Z,5.97
2022-11-23T06:47:02.933Z,5.47
2022-11-23T06:53:14.845Z,5.07
2022-11-23T06:59:33.816Z,5.58
2022-11-23T07:05:49.107Z,6.40
2022-11-23T07:12:04.982Z,5.47
2022-11-23T07:18:18.185Z,7.60
2022-11-23T07:24:38.597Z,6.20
2022-11-23T07:30:47.489Z,4.17
2022-11-23T07:37:02.331Z,4.20
2022-11-23T07:43:16.534Z,3.70
2022-11-23T07:49:34.911Z,4.17
2022-11-23T07:55:50.831Z,3.02
2022-11-23T08:02:04.158Z,4.70
2022-11-23T08:08:17.641Z,3.30
2022-11-23T08:21:32.525Z,5.12
2022-11-23T08:27:43.659Z,4.97
2022-11-23T08:33:58.826Z,2.55
2022-11-23T08:40:12.188Z,3.33
2022-11-23T08:46:28.372Z,5.73
2022-11-23T08:52:41.928Z,5.43
2022-11-23T08:58:54.011Z,2.65
2022-11-23T09:05:08.695Z,4.97
2022-11-23T09:11:22.024Z,2.95
2022-11-23T09:17:36.651Z,5.10
2022-11-23T09:23:51.806Z,3.42
2022-11-23T09:30:09.000Z,2.98
2022-11-23T09:36:22.280Z,3.83
2022-11-23T09:42:51.328Z,2.20
2022-11-23T09:49:25.288Z,2.20
2022-11-23T09:55:41.043Z,2.25
2022-11-23T10:01:57.832Z,2.47
2022-11-23T10:08:16.962Z,3.50
2022-11-23T10:14:39.668Z,3.12
2022-11-23T10:21:04.337Z,3.10
2022-11-23T10:27:19.202Z,3.92
2022-11-23T10:33:34.947Z,1.92
2022-11-23T10:39:48.054Z,2.20
2022-11-23T10:46:07.596Z,2.50
2022-11-23T10:52:32.296Z,3.72
2022-11-23T10:58:49.382Z,2.25
2022-11-23T11:11:14.289Z,1.50
2022-11-23T11:17:34.653Z,2.25
2022-11-23T11:23:52.131Z,2.20
2022-11-23T11:30:07.667Z,1.92
2022-11-23T11:36:22.019Z,2.47
2022-11-23T11:42:39.127Z,2.52
2022-11-23T11:55:01.193Z,3.15
2022-11-23T12:01:16.105Z,2.58
2022-11-23T12:07:27.561Z,1.80
2022-11-23T12:13:43.394Z,2.65
2022-11-23T12:19:57.559Z,2.17
2022-11-23T12:26:16.543Z,1.52
2022-11-23T12:32:34.272Z,3.15
2022-11-23T12:38:51.420Z,1.82
2022-11-23T12:45:31.557Z,3.00
2022-11-23T12:51:49.204Z,1.87
2022-11-23T12:58:03.270Z,1.47
2022-11-23T13:04:44.626Z,1.60
2022-11-23T13:11:00.982Z,1.98
2022-11-23T13:17:26.322Z,4.62
2022-11-23T13:23:43.445Z,1.98
2022-11-23T13:30:02.487Z,2.02
2022-11-23T13:36:19.971Z,2.67
2022-11-23T13:42:31.455Z,157.05
2022-11-23T13:48:57.712Z,60.78
2022-11-23T13:55:14.820Z,112.55
2022-11-23T14:02:00.386Z,120.08
2022-11-23T14:08:13.411Z,101.60
2022-11-23T14:14:25.223Z,78.87
2022-11-23T14:21:18.313Z,78.28
2022-11-23T14:27:48.206Z,65.13
2022-11-23T14:34:05.136Z,62.17
2022-11-23T14:46:36.948Z,62.30
2022-11-23T14:52:50.370Z,54.20
2022-11-23T14:59:09.159Z,50.80
2022-11-23T15:05:26.803Z,60.08
2022-11-23T15:11:42.925Z,42.83
2022-11-23T15:18:04.276Z,43.00
2022-11-23T15:24:31.496Z,45.10
2022-11-23T15:30:47.899Z,40.52
2022-11-23T15:37:02.164Z,43.65
2022-11-23T15:43:21.372Z,40.05
2022-11-23T15:49:35.122Z,40.17
2022-11-23T15:55:54.748Z,33.98
2022-11-23T16:02:13.532Z,34.50
2022-11-23T16:08:32.359Z,31.93
2022-11-23T16:14:48.241Z,29.12
2022-11-23T16:21:03.404Z,30.08
2022-11-23T16:27:29.441Z,27.62
2022-11-23T16:33:47.840Z,27.20
2022-11-23T16:40:03.116Z,26.73
2022-11-23T16:46:18.675Z,25.60
2022-11-23T16:52:32.689Z,26.37
2022-11-23T16:58:48.894Z,23.47
2022-11-23T17:05:02.845Z,22.82
2022-11-23T17:11:17.293Z,21.97
2022-11-23T17:17:33.168Z,19.85
2022-11-23T17:23:46.684Z,19.30
2022-11-23T17:30:00.137Z,18.12
2022-11-23T17:36:15.143Z,17.85
2022-11-23T17:42:28.607Z,13.78
2022-11-23T17:48:44.658Z,16.80
2022-11-23T17:55:00.370Z,18.98
2022-11-23T18:01:17.901Z,13.73
2022-11-23T18:07:34.844Z,13.60
2022-11-23T18:13:50.747Z,13.53
2022-11-23T18:20:05.344Z,14.00
2022-11-23T18:26:26.534Z,13.10
2022-11-23T18:32:42.176Z,13.00
2022-11-23T18:39:00.354Z,12.93
2022-11-23T18:45:14.915Z,12.70
2022-11-23T18:51:25.863Z,11.10
2022-11-23T18:57:39.102Z,11.20
2022-11-23T19:03:55.006Z,11.15
2022-11-23T19:10:23.999Z,10.48
2022-11-23T19:16:46.569Z,9.90
2022-11-23T19:23:04.909Z,10.98
2022-11-23T19:29:24.813Z,10.03
2022-11-23T19:35:43.911Z,8.88
2022-11-23T19:42:05.188Z,9.70
2022-11-23T19:48:25.695Z,8.08
2022-11-23T19:54:43.374Z,11.00
2022-11-23T20:00:56.237Z,8.80
2022-11-23T20:07:11.059Z,9.05
2022-11-23T20:13:25.435Z,9.50
2022-11-23T20:19:42.766Z,9.63
2022-11-23T20:26:05.735Z,7.22
2022-11-23T20:32:19.474Z,6.22
2022-11-23T20:38:36.230Z,7.17
2022-11-23T20:44:54.530Z,8.38
2022-11-23T20:51:10.657Z,7.22
2022-11-23T20:57:27.106Z,7.72
2022-11-23T21:03:41.429Z,7.55
2022-11-23T21:09:56.372Z,7.50
2022-11-23T21:16:17.169Z,7.47
2022-11-23T21:22:32.276Z,6.33
2022-11-23T21:28:49.726Z,5.67
2022-11-23T21:35:09.019Z,6.05
2022-11-23T21:41:19.267Z,8.90
2022-11-23T21:47:35.830Z,6.28
2022-11-23T22:00:07.139Z,5.90
2022-11-23T22:06:20.815Z,5.60
2022-11-23T22:12:38.297Z,6.12
2022-11-23T22:18:55.513Z,14.60
2022-11-23T22:25:09.641Z,14.15
2022-11-23T22:31:28.438Z,8.15
2022-11-23T22:37:47.864Z,8.10
2022-11-23T22:44:04.404Z,8.55
2022-11-23T22:56:28.076Z,5.78
2022-11-23T23:02:44.666Z,8.80
2022-11-23T23:09:00.981Z,6.60
2022-11-23T23:15:16.458Z,7.47
2022-11-23T23:21:32.305Z,7.10
2022-11-23T23:27:47.984Z,4.78
2022-11-23T23:33:59.564Z,5.73
2022-11-23T23:40:14.972Z,5.87
2022-11-23T23:46:25.142Z,4.40
2022-11-23T23:52:36.698Z,5.70
2022-11-23T23:58:47.931Z,7.10
